createdAt,value
2017-12-24T00:01:31.808Z,7.60
2017-12-24T00:03:59.291Z,7.30
2017-12-24T00:06:27.533Z,8.17
2017-12-24T00:08:55.032Z,7.20
2017-12-24T00:11:22.521Z,10.13
2017-12-24T00:13:50.806Z,6.97
2017-12-24T00:16:19.103Z,5.67
2017-12-24T00:18:46.575Z,9.77
2017-12-24T00:21:14.818Z,6.03
2017-12-24T00:23:42.322Z,9.27
2017-12-24T00:26:10.567Z,12.00
2017-12-24T00:28:38.076Z,3.67
2017-12-24T00:31:05.555Z,4.87
2017-12-24T00:33:33.819Z,4.10
2017-12-24T00:36:01.301Z,3.97
2017-12-24T00:38:28.808Z,3.70
2017-12-24T00:40:56.286Z,6.00
2017-12-24T00:43:23.784Z,9.13
2017-12-24T00:45:51.274Z,8.60
2017-12-24T00:48:18.777Z,3.50
2017-12-24T00:50:46.247Z,2.67
2017-12-24T00:53:13.760Z,7.57
2017-12-24T00:55:41.238Z,7.50
2017-12-24T00:58:08.735Z,5.97
2017-12-24T01:00:36.215Z,6.23
2017-12-24T01:03:03.710Z,6.20
2017-12-24T01:05:31.208Z,4.20
2017-12-24T01:07:58.692Z,7.40
2017-12-24T01:10:26.192Z,6.60
2017-12-24T01:12:54.435Z,4.30
2017-12-24T01:15:21.937Z,3.50
2017-12-24T01:17:49.407Z,4.20
2017-12-24T01:20:16.926Z,4.30
2017-12-24T01:22:44.400Z,3.70
2017-12-24T01:25:11.896Z,3.50
2017-12-24T01:27:39.376Z,4.40
2017-12-24T01:30:06.868Z,3.80
2017-12-24T01:32:34.355Z,3.53
2017-12-24T01:35:02.619Z,3.50
2017-12-24T01:37:30.106Z,5.40
2017-12-24T01:39:58.376Z,4.17
2017-12-24T01:42:25.864Z,3.97
2017-12-24T01:44:54.137Z,4.60
2017-12-24T01:47:21.620Z,4.13
2017-12-24T01:49:49.896Z,4.90
2017-12-24T01:52:17.378Z,5.40
2017-12-24T01:54:45.647Z,4.40
2017-12-24T01:57:13.131Z,4.17
2017-12-24T01:59:41.391Z,4.77
2017-12-24T02:02:08.862Z,4.17
2017-12-24T02:04:36.396Z,3.60
2017-12-24T02:07:03.904Z,1.77
2017-12-24T02:09:31.384Z,1.97
2017-12-24T02:11:58.894Z,2.80
2017-12-24T02:14:26.378Z,1.40
2017-12-24T02:16:53.871Z,2.40
2017-12-24T02:19:21.347Z,1.53
2017-12-24T02:21:48.843Z,1.53
2017-12-24T02:24:16.320Z,1.20
2017-12-24T02:26:44.600Z,1.30
2017-12-24T02:29:12.083Z,1.07
2017-12-24T02:31:40.347Z,1.30
2017-12-24T02:34:07.840Z,1.20
2017-12-24T02:36:36.116Z,0.67
2017-12-24T02:39:04.386Z,1.10
2017-12-24T02:41:31.885Z,0.90
2017-12-24T02:43:59.363Z,1.37
2017-12-24T02:46:27.637Z,2.50
2017-12-24T02:48:55.120Z,2.23
2017-12-24T02:51:23.423Z,1.60
2017-12-24T02:53:50.924Z,1.57
2017-12-24T02:56:18.415Z,1.57
2017-12-24T02:58:45.912Z,1.13
2017-12-24T03:01:14.168Z,1.30
2017-12-24T03:03:41.659Z,2.97
2017-12-24T03:06:09.144Z,1.40
2017-12-24T03:08:37.421Z,2.47
2017-12-24T03:11:04.912Z,1.63
2017-12-24T03:13:33.175Z,3.70
2017-12-24T03:16:00.710Z,1.87
2017-12-24T03:18:28.923Z,1.80
2017-12-24T03:20:56.395Z,1.90
2017-12-24T03:23:23.933Z,2.47
2017-12-24T03:25:51.426Z,1.97
2017-12-24T03:28:18.927Z,2.20
2017-12-24T03:30:46.548Z,1.80
2017-12-24T03:33:14.048Z,1.70
2017-12-24T03:35:41.515Z,2.40
2017-12-24T03:38:09.019Z,3.17
2017-12-24T03:40:37.268Z,2.93
2017-12-24T03:43:04.780Z,2.30
2017-12-24T03:45:33.019Z,3.10
2017-12-24T03:48:00.534Z,2.03
2017-12-24T03:50:28.783Z,2.13
2017-12-24T03:52:56.267Z,2.33
2017-12-24T03:55:23.793Z,2.00
2017-12-24T03:57:51.284Z,2.40
2017-12-24T04:00:18.790Z,2.50
2017-12-24T04:02:47.036Z,2.13
2017-12-24T04:05:14.531Z,2.83
2017-12-24T04:07:42.020Z,2.00
2017-12-24T04:10:10.270Z,1.60
2017-12-24T04:12:37.760Z,1.97
2017-12-24T04:15:05.262Z,2.50
2017-12-24T04:17:33.503Z,2.00
2017-12-24T04:20:01.003Z,2.20
2017-12-24T04:22:28.476Z,2.20
2017-12-24T04:24:56.743Z,2.87
2017-12-24T04:27:24.231Z,2.50
2017-12-24T04:29:51.725Z,2.47
2017-12-24T04:32:19.213Z,2.13
2017-12-24T04:34:46.719Z,1.87
2017-12-24T04:37:14.199Z,1.50
2017-12-24T04:39:41.699Z,2.53
2017-12-24T04:42:09.947Z,2.30
2017-12-24T04:44:37.459Z,2.10
2017-12-24T04:47:05.732Z,2.37
2017-12-24T04:49:34.024Z,1.90
2017-12-24T04:52:02.270Z,1.90
2017-12-24T04:54:29.755Z,2.20
2017-12-24T04:56:57.259Z,2.20
2017-12-24T04:59:25.518Z,2.20
2017-12-24T05:01:53.029Z,1.80
2017-12-24T05:04:20.509Z,3.70
2017-12-24T05:06:48.012Z,2.13
2017-12-24T05:09:15.497Z,2.50
2017-12-24T05:11:42.995Z,3.50
2017-12-24T05:14:11.247Z,3.70
2017-12-24T05:16:38.747Z,3.00
2017-12-24T05:19:06.987Z,3.30
2017-12-24T05:21:34.474Z,2.80
2017-12-24T05:24:01.965Z,2.93
2017-12-24T05:26:29.464Z,2.67
2017-12-24T05:28:56.960Z,3.00
2017-12-24T05:31:24.457Z,3.50
2017-12-24T05:33:51.944Z,2.93
2017-12-24T05:36:19.444Z,2.93
2017-12-24T05:38:46.935Z,3.13
2017-12-24T05:41:14.441Z,3.13
2017-12-24T05:43:41.932Z,2.90
2017-12-24T05:46:10.175Z,3.30
2017-12-24T05:48:37.692Z,2.67
2017-12-24T05:51:05.944Z,4.80
2017-12-24T05:53:33.451Z,3.20
2017-12-24T05:56:01.701Z,2.93
2017-12-24T05:58:29.215Z,4.70
2017-12-24T06:00:57.472Z,2.83
2017-12-24T06:03:24.972Z,2.30
2017-12-24T06:05:52.467Z,3.30
2017-12-24T06:08:19.963Z,2.57
2017-12-24T06:10:47.443Z,2.63
2017-12-24T06:13:14.955Z,3.90
2017-12-24T06:15:43.208Z,2.50
2017-12-24T06:18:10.760Z,2.50
2017-12-24T06:20:38.278Z,2.97
2017-12-24T06:23:06.637Z,2.63
2017-12-24T06:25:34.151Z,2.90
2017-12-24T06:28:01.695Z,3.27
2017-12-24T06:30:29.188Z,3.30
2017-12-24T06:32:57.467Z,2.60
2017-12-24T06:35:25.723Z,3.63
2017-12-24T06:37:53.229Z,3.10
2017-12-24T06:40:21.488Z,3.07
2017-12-24T06:42:49.006Z,3.80
2017-12-24T06:45:16.521Z,3.00
2017-12-24T06:47:44.003Z,3.00
2017-12-24T06:50:11.516Z,3.13
2017-12-24T06:52:38.995Z,2.93
2017-12-24T06:55:06.503Z,4.03
2017-12-24T06:57:33.996Z,3.00
2017-12-24T07:00:01.509Z,2.70
2017-12-24T07:02:29.009Z,3.33
2017-12-24T07:04:56.520Z,4.90
2017-12-24T07:07:24.771Z,5.90
2017-12-24T07:09:52.315Z,3.20
2017-12-24T07:12:19.813Z,3.30
2017-12-24T07:14:47.327Z,3.43
2017-12-24T07:17:15.582Z,2.20
2017-12-24T07:19:43.113Z,3.07
2017-12-24T07:22:10.595Z,4.80
2017-12-24T07:24:38.092Z,3.97
2017-12-24T07:27:05.569Z,4.10
2017-12-24T07:29:33.075Z,2.70
2017-12-24T07:32:01.320Z,3.53
2017-12-24T07:34:28.828Z,4.60
2017-12-24T07:36:57.079Z,4.83
2017-12-24T07:39:24.584Z,4.40
2017-12-24T07:41:52.853Z,3.43
2017-12-24T07:44:20.713Z,3.30
2017-12-24T07:46:48.222Z,5.10
2017-12-24T07:49:16.472Z,4.00
2017-12-24T07:51:43.970Z,3.27
2017-12-24T07:54:12.211Z,3.53
2017-12-24T07:56:39.721Z,3.80
2017-12-24T07:59:07.198Z,4.30
2017-12-24T08:01:35.483Z,3.80
2017-12-24T08:04:02.978Z,3.87
2017-12-24T08:06:30.479Z,4.10
2017-12-24T08:08:57.952Z,4.63
2017-12-24T08:11:25.456Z,7.90
2017-12-24T08:13:52.939Z,3.83
2017-12-24T08:16:21.212Z,3.30
2017-12-24T08:18:48.696Z,3.43
2017-12-24T08:21:16.972Z,3.30
2017-12-24T08:23:44.458Z,3.37
2017-12-24T08:26:12.724Z,3.17
2017-12-24T08:28:40.208Z,3.53
2017-12-24T08:31:07.720Z,3.70
2017-12-24T08:33:35.223Z,3.67
2017-12-24T08:36:02.723Z,2.73
2017-12-24T08:38:30.224Z,4.03
2017-12-24T08:40:57.719Z,2.97
2017-12-24T08:43:25.214Z,2.70
2017-12-24T08:45:52.705Z,2.93
2017-12-24T08:48:21.057Z,4.73
2017-12-24T08:50:48.533Z,5.73
2017-12-24T08:53:16.040Z,3.07
2017-12-24T08:55:44.333Z,3.43
2017-12-24T08:58:12.613Z,5.20
2017-12-24T09:00:40.105Z,3.17
2017-12-24T09:03:07.607Z,4.20
2017-12-24T09:05:35.088Z,3.10
2017-12-24T09:08:02.619Z,2.77
2017-12-24T09:10:30.177Z,3.67
2017-12-24T09:12:58.463Z,7.60
2017-12-24T09:15:26.720Z,2.63
2017-12-24T09:17:54.243Z,2.40
2017-12-24T09:20:21.736Z,3.00
2017-12-24T09:22:49.253Z,2.80
2017-12-24T09:25:17.503Z,2.63
2017-12-24T09:27:45.031Z,3.40
2017-12-24T09:30:12.525Z,2.50
2017-12-24T09:32:40.092Z,3.30
2017-12-24T09:35:08.312Z,2.43
2017-12-24T09:37:35.812Z,2.60
2017-12-24T09:40:04.072Z,2.27
2017-12-24T09:42:31.556Z,4.30
2017-12-24T09:44:59.125Z,2.30
2017-12-24T09:47:26.599Z,3.00
2017-12-24T09:49:54.134Z,2.33
2017-12-24T09:52:21.647Z,2.43
2017-12-24T09:54:49.157Z,2.80
2017-12-24T09:57:16.653Z,12.33
2017-12-24T09:59:44.149Z,2.77
2017-12-24T10:02:11.631Z,5.10
2017-12-24T10:04:39.899Z,2.57
2017-12-24T10:07:07.392Z,2.33
2017-12-24T10:09:35.807Z,2.77
2017-12-24T10:12:03.288Z,4.43
2017-12-24T10:14:30.789Z,3.20
2017-12-24T10:16:58.280Z,4.37
2017-12-24T10:19:25.774Z,2.90
2017-12-24T10:21:54.015Z,5.10
2017-12-24T10:24:22.119Z,5.27
2017-12-24T10:26:49.600Z,4.83
2017-12-24T10:29:17.109Z,4.87
2017-12-24T10:31:44.590Z,3.63
2017-12-24T10:34:12.106Z,3.60
2017-12-24T10:36:39.588Z,3.60
2017-12-24T10:39:07.851Z,3.47
2017-12-24T10:41:35.335Z,3.10
2017-12-24T10:44:02.816Z,3.53
2017-12-24T10:46:31.084Z,3.63
2017-12-24T10:48:58.572Z,3.80
2017-12-24T10:51:26.848Z,3.67
2017-12-24T10:53:54.341Z,4.10
2017-12-24T10:56:21.848Z,2.77
2017-12-24T10:58:49.324Z,2.90
2017-12-24T11:01:16.820Z,4.33
2017-12-24T11:03:44.322Z,2.20
2017-12-24T11:06:12.592Z,2.80
2017-12-24T11:08:40.088Z,2.40
2017-12-24T11:11:07.595Z,4.00
2017-12-24T11:13:35.087Z,2.30
2017-12-24T11:16:02.597Z,2.97
2017-12-24T11:18:30.114Z,2.47
2017-12-24T11:20:57.628Z,2.10
2017-12-24T11:23:25.869Z,2.43
2017-12-24T11:25:53.381Z,2.00
2017-12-24T11:28:21.628Z,2.63
2017-12-24T11:30:49.123Z,3.73
2017-12-24T11:33:16.604Z,3.17
2017-12-24T11:35:44.099Z,2.30
2017-12-24T11:38:11.572Z,1.73
2017-12-24T11:40:39.101Z,2.10
2017-12-24T11:43:06.580Z,3.00
2017-12-24T11:45:34.060Z,3.07
2017-12-24T11:48:02.338Z,1.73
2017-12-24T11:50:29.827Z,3.70
2017-12-24T11:52:58.098Z,1.27
2017-12-24T11:55:25.592Z,2.43
2017-12-24T11:57:53.886Z,1.20
2017-12-24T12:00:21.381Z,1.63
2017-12-24T12:02:48.887Z,2.67
2017-12-24T12:05:16.380Z,2.30
2017-12-24T12:07:44.647Z,1.80
2017-12-24T12:10:12.131Z,2.83
2017-12-24T12:12:40.402Z,1.70
2017-12-24T12:15:07.887Z,3.23
2017-12-24T12:17:35.393Z,2.27
2017-12-24T12:20:02.879Z,2.30
2017-12-24T12:22:30.458Z,1.50
2017-12-24T12:24:57.943Z,1.77
2017-12-24T12:27:25.452Z,2.50
2017-12-24T12:29:53.700Z,1.70
2017-12-24T12:32:21.222Z,2.03
2017-12-24T12:34:48.699Z,3.07
2017-12-24T12:37:16.208Z,1.60
2017-12-24T12:39:43.699Z,1.67
2017-12-24T12:42:11.215Z,2.40
2017-12-24T12:44:38.700Z,2.13
2017-12-24T12:47:06.180Z,3.90
2017-12-24T12:49:33.688Z,3.30
2017-12-24T12:52:01.167Z,2.00
2017-12-24T12:54:29.436Z,1.63
2017-12-24T12:56:56.911Z,2.10
2017-12-24T12:59:24.423Z,1.77
2017-12-24T13:01:51.915Z,1.40
2017-12-24T13:04:19.443Z,2.00
2017-12-24T13:06:47.696Z,1.50
2017-12-24T13:09:15.205Z,1.93
2017-12-24T13:11:42.708Z,1.73
2017-12-24T13:14:10.217Z,1.37
2017-12-24T13:16:37.687Z,2.90
2017-12-24T13:19:05.187Z,2.83
2017-12-24T13:21:33.431Z,1.90
2017-12-24T13:24:00.938Z,2.00
2017-12-24T13:26:29.193Z,2.17
2017-12-24T13:28:56.701Z,1.80
2017-12-24T13:31:24.219Z,1.97
2017-12-24T13:33:51.712Z,1.90
2017-12-24T13:36:19.207Z,1.70
2017-12-24T13:38:47.487Z,2.07
2017-12-24T13:41:14.970Z,1.60
2017-12-24T13:43:43.240Z,1.87
2017-12-24T13:46:10.728Z,1.90
2017-12-24T13:48:39.008Z,1.93
2017-12-24T13:51:07.268Z,2.43
2017-12-24T13:53:34.788Z,2.20
2017-12-24T13:56:03.043Z,2.37
2017-12-24T13:58:31.299Z,1.90
2017-12-24T14:00:58.804Z,2.43
2017-12-24T14:03:27.116Z,2.77
2017-12-24T14:05:54.644Z,2.43
2017-12-24T14:08:22.140Z,2.27
2017-12-24T14:10:50.407Z,2.50
2017-12-24T14:13:18.209Z,2.93
2017-12-24T14:15:46.488Z,3.10
2017-12-24T14:18:14.747Z,1.70
2017-12-24T14:20:42.248Z,2.07
2017-12-24T14:23:09.730Z,2.40
2017-12-24T14:25:37.995Z,2.50
2017-12-24T14:28:05.493Z,2.70
2017-12-24T14:30:33.763Z,2.90
2017-12-24T14:33:02.031Z,3.07
2017-12-24T14:35:29.532Z,2.57
2017-12-24T14:37:57.788Z,5.27
2017-12-24T14:40:25.296Z,2.37
2017-12-24T14:42:53.547Z,2.80
2017-12-24T14:45:21.057Z,2.67
2017-12-24T14:47:49.319Z,2.40
2017-12-24T14:50:16.808Z,3.07
2017-12-24T14:52:45.076Z,3.23
2017-12-24T14:55:12.563Z,3.40
2017-12-24T14:57:40.826Z,2.33
2017-12-24T15:00:08.308Z,3.60
2017-12-24T15:02:35.822Z,2.77
2017-12-24T15:05:03.304Z,1.87
2017-12-24T15:07:30.804Z,2.70
2017-12-24T15:09:58.277Z,3.57
2017-12-24T15:12:25.800Z,2.67
2017-12-24T15:14:53.288Z,2.00
2017-12-24T15:17:20.795Z,7.50
2017-12-24T15:19:48.272Z,4.87
2017-12-24T15:22:15.779Z,2.60
2017-12-24T15:24:43.260Z,4.60
2017-12-24T15:27:10.768Z,2.90
2017-12-24T15:29:38.248Z,2.37
2017-12-24T15:32:05.764Z,3.40
2017-12-24T15:34:33.259Z,3.40
2017-12-24T15:37:00.788Z,4.93
2017-12-24T15:39:29.036Z,3.90
2017-12-24T15:41:56.545Z,3.77
2017-12-24T15:44:24.807Z,3.43
2017-12-24T15:46:52.304Z,5.90
2017-12-24T15:49:20.567Z,3.57
2017-12-24T15:51:48.045Z,2.80
2017-12-24T15:54:15.548Z,3.37
2017-12-24T15:56:43.040Z,2.97
2017-12-24T15:59:10.543Z,2.60
2017-12-24T16:01:38.025Z,2.87
2017-12-24T16:04:05.535Z,4.33
2017-12-24T16:06:33.032Z,3.93
2017-12-24T16:09:00.769Z,5.40
2017-12-24T16:11:28.251Z,2.53
2017-12-24T16:13:55.744Z,3.40
2017-12-24T16:16:23.240Z,2.37
2017-12-24T16:18:50.747Z,4.13
2017-12-24T16:21:18.232Z,4.30
2017-12-24T16:23:45.727Z,4.00
2017-12-24T16:26:13.218Z,4.10
2017-12-24T16:28:40.956Z,3.50
2017-12-24T16:31:08.436Z,2.30
2017-12-24T16:33:35.960Z,2.23
2017-12-24T16:36:04.229Z,2.60
2017-12-24T16:38:32.666Z,2.43
2017-12-24T16:41:00.168Z,2.10
2017-12-24T16:43:27.668Z,1.93
2017-12-24T16:45:55.156Z,1.73
2017-12-24T16:48:23.403Z,2.80
2017-12-24T16:50:50.916Z,1.93
2017-12-24T16:53:20.042Z,3.17
2017-12-24T16:55:47.563Z,2.53
2017-12-24T16:58:15.060Z,2.10
2017-12-24T17:00:42.568Z,1.93
2017-12-24T17:03:10.819Z,2.37
2017-12-24T17:05:39.094Z,2.20
2017-12-24T17:08:06.601Z,2.17
2017-12-24T17:10:34.099Z,1.83
2017-12-24T17:13:01.588Z,1.77
2017-12-24T17:15:29.112Z,3.70
2017-12-24T17:17:56.648Z,2.70
2017-12-24T17:20:24.924Z,2.20
2017-12-24T17:22:52.412Z,3.00
2017-12-24T17:25:20.680Z,2.67
2017-12-24T17:27:48.956Z,2.70
2017-12-24T17:30:16.451Z,2.10
2017-12-24T17:32:43.936Z,1.80
2017-12-24T17:35:12.204Z,3.00
2017-12-24T17:37:39.688Z,3.60
2017-12-24T17:40:07.216Z,2.77
2017-12-24T17:42:34.712Z,2.33
2017-12-24T17:45:02.192Z,3.20
2017-12-24T17:47:30.467Z,3.87
2017-12-24T17:49:57.948Z,2.70
2017-12-24T17:52:25.447Z,2.83
2017-12-24T17:54:52.963Z,3.07
2017-12-24T17:57:20.469Z,3.30
2017-12-24T17:59:48.715Z,3.63
2017-12-24T18:02:16.227Z,2.80
2017-12-24T18:04:44.476Z,3.40
2017-12-24T18:07:11.993Z,4.73
2017-12-24T18:09:40.304Z,6.37
2017-12-24T18:12:07.799Z,4.23
2017-12-24T18:14:35.280Z,3.13
2017-12-24T18:17:02.791Z,3.50
2017-12-24T18:19:31.044Z,5.77
2017-12-24T18:21:58.551Z,4.60
2017-12-24T18:24:26.806Z,4.73
2017-12-24T18:26:54.395Z,4.43
2017-12-24T18:29:21.870Z,4.03
2017-12-24T18:31:50.150Z,7.63
2017-12-24T18:34:17.683Z,4.83
2017-12-24T18:36:45.215Z,3.50
2017-12-24T18:39:12.728Z,3.90
2017-12-24T18:41:40.252Z,3.90
2017-12-24T18:44:07.765Z,4.10
2017-12-24T18:46:35.247Z,3.57
2017-12-24T18:49:02.800Z,3.60
2017-12-24T18:51:30.308Z,5.00
2017-12-24T18:53:57.825Z,4.60
2017-12-24T18:56:25.315Z,5.93
2017-12-24T18:58:52.815Z,3.80
2017-12-24T19:01:20.305Z,3.67
2017-12-24T19:03:48.583Z,3.47
2017-12-24T19:06:16.064Z,5.83
2017-12-24T19:08:44.336Z,4.47
2017-12-24T19:11:11.815Z,3.80
2017-12-24T19:13:39.315Z,8.20
2017-12-24T19:16:06.803Z,7.60
2017-12-24T19:18:34.321Z,5.27
2017-12-24T19:21:01.816Z,5.80
2017-12-24T19:23:29.332Z,4.80
2017-12-24T19:25:56.813Z,5.33
2017-12-24T19:28:24.316Z,4.03
2017-12-24T19:30:52.570Z,5.03
2017-12-24T19:33:20.084Z,4.20
2017-12-24T19:35:48.332Z,5.10
2017-12-24T19:38:15.831Z,3.43
2017-12-24T19:40:44.084Z,2.90
2017-12-24T19:43:11.559Z,3.77
2017-12-24T19:45:39.377Z,4.23
2017-12-24T19:48:07.625Z,4.27
2017-12-24T19:50:35.123Z,4.13
2017-12-24T19:53:02.681Z,4.17
2017-12-24T19:55:30.180Z,6.60
2017-12-24T19:57:59.231Z,8.23
2017-12-24T20:00:26.736Z,9.37
2017-12-24T20:02:54.983Z,6.77
2017-12-24T20:05:22.499Z,4.17
2017-12-24T20:07:50.771Z,5.17
2017-12-24T20:10:18.264Z,4.43
2017-12-24T20:12:46.511Z,4.30
2017-12-24T20:15:14.007Z,3.47
2017-12-24T20:17:42.260Z,3.63
2017-12-24T20:20:09.785Z,6.07
2017-12-24T20:22:38.033Z,4.13
2017-12-24T20:25:05.535Z,4.30
2017-12-24T20:27:33.788Z,4.47
2017-12-24T20:30:01.296Z,3.20
2017-12-24T20:32:29.545Z,3.53
2017-12-24T20:34:57.051Z,4.37
2017-12-24T20:37:25.292Z,3.60
2017-12-24T20:39:52.804Z,4.30
2017-12-24T20:42:21.054Z,3.40
2017-12-24T20:44:48.529Z,3.63
2017-12-24T20:47:16.027Z,5.77
2017-12-24T20:49:44.271Z,4.57
2017-12-24T20:52:11.779Z,3.73
2017-12-24T20:54:39.275Z,2.77
2017-12-24T20:57:07.549Z,3.63
2017-12-24T20:59:35.797Z,4.07
2017-12-24T21:02:03.299Z,4.13
2017-12-24T21:04:31.558Z,6.97
2017-12-24T21:06:59.055Z,4.60
2017-12-24T21:09:27.308Z,6.53
2017-12-24T21:11:54.832Z,5.67
2017-12-24T21:14:22.317Z,5.23
2017-12-24T21:16:49.832Z,4.10
2017-12-24T21:19:17.324Z,4.10
2017-12-24T21:21:45.612Z,3.80
2017-12-24T21:24:13.859Z,3.73
2017-12-24T21:26:41.353Z,4.90
2017-12-24T21:29:08.831Z,3.40
2017-12-24T21:31:36.347Z,3.97
2017-12-24T21:34:03.838Z,3.77
2017-12-24T21:36:31.335Z,4.30
2017-12-24T21:38:58.821Z,4.60
2017-12-24T21:41:27.123Z,4.37
2017-12-24T21:43:55.365Z,4.40
2017-12-24T21:46:22.844Z,3.60
2017-12-24T21:48:50.344Z,3.23
2017-12-24T21:51:18.946Z,4.30
2017-12-24T21:53:47.211Z,3.90
2017-12-24T21:56:14.731Z,3.63
2017-12-24T21:58:42.240Z,4.50
2017-12-24T22:01:19.272Z,4.67
2017-12-24T22:03:49.263Z,4.40
2017-12-24T22:06:16.748Z,4.73
2017-12-24T22:08:44.249Z,5.83
2017-12-24T22:11:11.746Z,4.90
2017-12-24T22:13:39.247Z,10.07
2017-12-24T22:16:06.736Z,5.40
2017-12-24T22:18:34.245Z,5.23
2017-12-24T22:21:01.736Z,3.67
2017-12-24T22:23:29.941Z,4.37
2017-12-24T22:25:57.435Z,4.90
2017-12-24T22:28:25.707Z,3.97
2017-12-24T22:30:53.191Z,5.70
2017-12-24T22:33:21.459Z,5.17
2017-12-24T22:35:48.935Z,4.23
2017-12-24T22:38:16.441Z,3.80
2017-12-24T22:40:43.928Z,4.10
2017-12-24T22:43:11.427Z,4.53
2017-12-24T22:45:38.915Z,3.43
2017-12-24T22:48:06.468Z,2.50
2017-12-24T22:50:34.579Z,3.27
2017-12-24T22:53:02.045Z,3.20
2017-12-24T22:55:29.548Z,2.33
2017-12-24T22:57:57.048Z,3.50
2017-12-24T23:00:24.560Z,2.47
2017-12-24T23:02:52.048Z,2.40
2017-12-24T23:05:20.308Z,2.87
2017-12-24T23:07:47.780Z,3.17
2017-12-24T23:10:15.283Z,5.50
2017-12-24T23:12:42.763Z,4.03
2017-12-24T23:15:10.255Z,2.87
2017-12-24T23:17:37.751Z,4.90
2017-12-24T23:20:05.256Z,3.60
2017-12-24T23:22:33.507Z,2.60
2017-12-24T23:25:01.000Z,5.80
2017-12-24T23:27:28.483Z,3.43
2017-12-24T23:29:56.760Z,2.90
2017-12-24T23:32:24.250Z,4.40
2017-12-24T23:34:51.765Z,3.07
2017-12-24T23:37:19.240Z,2.90
2017-12-24T23:39:46.741Z,2.40
2017-12-24T23:42:14.271Z,1.90
2017-12-24T23:44:41.804Z,2.27
2017-12-24T23:47:09.283Z,2.67
2017-12-24T23:49:36.762Z,2.80
2017-12-24T23:52:04.269Z,1.93
2017-12-24T23:54:31.751Z,2.10
2017-12-24T23:56:59.251Z,2.37
2017-12-24T23:59:27.508Z,2.07
